createdAt,value
2017-06-29T15:25:51.113Z,55.33
2017-06-29T15:26:51.088Z,56.58
2017-06-29T15:27:51.070Z,56.2
2017-06-29T15:28:51.064Z,53.42
2017-06-29T15:29:51.072Z,53.81
2017-06-29T15:30:51.877Z,54.39
2017-06-29T15:31:51.083Z,54.87
2017-06-29T15:32:51.087Z,53.93
2017-06-29T15:33:51.085Z,54.13
2017-06-29T15:34:51.089Z,52.48
2017-06-29T15:35:50.775Z,53.55
2017-06-29T15:36:50.782Z,53.83
2017-06-29T15:37:50.778Z,51.9
2017-06-29T15:38:51.116Z,52.09
2017-06-29T15:39:50.788Z,51.51
2017-06-29T15:40:53.621Z,52.29
2017-06-29T15:41:51.117Z,52.19
2017-06-29T15:42:50.803Z,51.81
2017-06-29T15:43:51.126Z,52.84
2017-06-29T15:44:51.140Z,52.17
2017-06-29T15:45:51.142Z,52.75
2017-06-29T15:46:51.168Z,53.52
2017-06-29T15:47:51.144Z,53.61
2017-06-29T15:48:51.158Z,54.17
2017-06-29T15:49:51.165Z,53.78
2017-06-29T15:50:51.169Z,54.55
2017-06-29T15:51:51.179Z,55.1
2017-06-29T15:52:51.169Z,54.75
2017-06-29T15:53:51.180Z,55.49
2017-06-29T15:54:51.176Z,54.94
2017-06-29T15:55:51.181Z,55.9
2017-06-29T15:56:51.192Z,53.88
2017-06-29T15:57:51.190Z,53.69
2017-06-29T15:58:51.202Z,54.17
2017-06-29T15:59:51.224Z,53.97
2017-06-29T16:00:51.204Z,52.91
2017-06-29T16:01:51.209Z,52.81
2017-06-29T16:02:51.221Z,52.72
2017-06-29T16:03:51.219Z,52.72
2017-06-29T16:04:51.227Z,52.65
2017-06-29T16:05:51.229Z,53.59
2017-06-29T16:06:51.237Z,53.49
2017-06-29T16:07:51.240Z,53.59
2017-06-29T16:08:51.244Z,54.17
2017-06-29T16:09:51.253Z,53.97
2017-06-29T16:10:51.254Z,54.36
2017-06-29T16:11:51.263Z,54.27
2017-06-29T16:12:51.263Z,54.94
2017-06-29T16:13:50.980Z,54.46
2017-06-29T16:14:50.975Z,54.27
2017-06-29T16:15:51.279Z,53.69
2017-06-29T16:16:51.284Z,54.27
2017-06-29T16:17:51.287Z,55.23
2017-06-29T16:18:51.292Z,53.88
2017-06-29T16:19:51.302Z,53.39
2017-06-29T16:20:51.304Z,53.78
2017-06-29T16:21:51.306Z,53.88
2017-06-29T16:22:51.320Z,53.61
2017-06-29T16:23:51.316Z,53.71
2017-06-29T16:24:51.438Z,53.23
2017-06-29T16:25:51.023Z,52.94
2017-06-29T16:26:51.384Z,53.23
2017-06-29T16:27:51.035Z,53.23
2017-06-29T16:28:51.346Z,53.61
2017-06-29T16:29:51.346Z,53.52
2017-06-29T16:30:51.046Z,53.88
2017-06-29T16:31:51.053Z,53.59
2017-06-29T16:32:51.359Z,53.39
2017-06-29T16:33:51.062Z,53.49
2017-06-29T16:34:51.369Z,52.72
2017-06-29T16:35:51.374Z,53.39
2017-06-29T16:36:51.078Z,53.49
2017-06-29T16:37:51.385Z,53.69
2017-06-29T16:38:51.389Z,53.42
2017-06-29T16:39:51.402Z,52.07
2017-06-29T16:40:51.408Z,51.1
2017-06-29T16:41:51.657Z,51.2
2017-06-29T16:42:51.409Z,50.81
2017-06-29T16:43:51.428Z,50.23
2017-06-29T16:44:51.421Z,48.79
2017-06-29T16:45:51.115Z,48.3
2017-06-29T16:46:51.435Z,47.8
2017-06-29T16:47:51.434Z,47.99
2017-06-29T16:48:51.438Z,47.77
2017-06-29T16:49:51.442Z,48.25
2017-06-29T16:50:51.446Z,49.22
2017-06-29T16:51:51.453Z,49.02
2017-06-29T16:52:51.455Z,48.54
2017-06-29T16:53:51.470Z,49.48
2017-06-29T16:54:51.472Z,49.19
2017-06-29T16:55:51.473Z,48.81
2017-06-29T16:56:51.526Z,48.33
2017-06-29T16:57:51.480Z,48.42
2017-06-29T16:58:51.485Z,49.19
2017-06-29T16:59:51.493Z,49.29
2017-06-29T17:00:51.500Z,49.1
2017-06-29T17:01:51.501Z,48.9
2017-06-29T17:02:51.503Z,49
2017-06-29T17:03:51.507Z,49.29
2017-06-29T17:04:51.513Z,49.48
2017-06-29T17:05:51.526Z,50.16
2017-06-29T17:06:51.521Z,50.16
2017-06-29T17:07:51.214Z,50.84
2017-06-29T17:08:51.530Z,50.54
2017-06-29T17:09:51.536Z,50.71
2017-06-29T17:10:51.234Z,50.45
2017-06-29T17:11:51.640Z,50.54
2017-06-29T17:12:51.550Z,50.84
2017-06-29T17:13:51.552Z,50.64
2017-06-29T17:14:51.560Z,50.54
2017-06-29T17:15:51.561Z,50.18
2017-06-29T17:16:51.569Z,50.28
2017-06-29T17:17:51.569Z,50.16
2017-06-29T17:18:51.260Z,50.28
2017-06-29T17:19:51.592Z,50.86
2017-06-29T17:20:51.590Z,50.47
2017-06-29T17:21:51.274Z,50.76
2017-06-29T17:22:51.595Z,50.54
2017-06-29T17:23:51.282Z,50.74
2017-06-29T17:24:51.608Z,51.32
2017-06-29T17:25:51.605Z,51.12
2017-06-29T17:26:51.867Z,51.41
2017-06-29T17:27:51.302Z,52.19
2017-06-29T17:28:51.619Z,51.89
2017-06-29T17:29:51.341Z,51.99
2017-06-29T17:30:51.657Z,51.99
2017-06-29T17:31:51.319Z,52.09
2017-06-29T17:32:51.635Z,51.22
2017-06-29T17:33:51.642Z,51.87
2017-06-29T17:34:51.655Z,51.97
2017-06-29T17:35:51.662Z,52.06
2017-06-29T17:36:51.735Z,52.19
2017-06-29T17:37:51.665Z,51.61
2017-06-29T17:38:51.700Z,51.7
2017-06-29T17:39:51.672Z,51.32
2017-06-29T17:40:51.679Z,51.32
2017-06-29T17:41:51.617Z,50.74
2017-06-29T17:42:51.704Z,50.84
2017-06-29T17:43:51.682Z,51.22
2017-06-29T17:45:17.424Z,50.62
2017-06-29T17:45:51.695Z,50.64
2017-06-29T17:46:51.697Z,51.03
2017-06-29T17:47:51.701Z,50.71
2017-06-29T17:48:51.705Z,50.54
2017-06-29T17:49:51.713Z,50.52
2017-06-29T17:50:51.716Z,50.81
2017-06-29T17:51:51.743Z,50.62
2017-06-29T17:52:51.722Z,50.81
2017-06-29T17:53:51.727Z,51.48
2017-06-29T17:54:51.732Z,51.39
2017-06-29T17:55:51.735Z,52.06
2017-06-29T17:56:51.787Z,51.39
2017-06-29T17:57:51.759Z,51.39
2017-06-29T17:58:51.468Z,51.29
2017-06-29T17:59:51.756Z,51.68
2017-06-29T18:00:51.754Z,52.55
2017-06-29T18:01:51.758Z,53.22
2017-06-29T18:02:51.760Z,53.41
2017-06-29T18:03:51.766Z,53.41
2017-06-29T18:04:51.772Z,53.7
2017-06-29T18:05:51.779Z,53.51
2017-06-29T18:06:51.799Z,53.8
2017-06-29T18:07:51.784Z,54.96
2017-06-29T18:08:51.789Z,54.83
2017-06-29T18:09:51.793Z,56.09
2017-06-29T18:10:51.829Z,56.18
2017-06-29T18:11:53.728Z,56.85
2017-06-29T18:12:51.892Z,57.62
2017-06-29T18:13:51.809Z,58.49
2017-06-29T18:14:51.812Z,59.33
2017-06-29T18:15:51.504Z,60
2017-06-29T18:16:51.814Z,59.91
2017-06-29T18:17:51.818Z,59.97
2017-06-29T18:18:51.833Z,60.07
2017-06-29T18:19:51.827Z,60.27
2017-06-29T18:20:51.838Z,59.97
2017-06-29T18:21:51.533Z,60.72
2017-06-29T18:22:51.835Z,62.06
2017-06-29T18:23:51.854Z,60.72
2017-06-29T18:24:51.844Z,60.91
2017-06-29T18:25:51.854Z,60.81
2017-06-29T18:26:51.850Z,61.97
2017-06-29T18:27:51.856Z,63.02
2017-06-29T18:28:51.857Z,62.06
2017-06-29T18:29:51.548Z,62.06
2017-06-29T18:30:51.863Z,63.22
2017-06-29T18:31:51.871Z,63.41
2017-06-29T18:32:51.870Z,63.67
2017-06-29T18:33:51.876Z,64.05
2017-06-29T18:34:51.894Z,63.95
2017-06-29T18:35:51.607Z,64.73
2017-06-29T18:36:51.918Z,65.2
2017-06-29T18:37:51.887Z,64.73
2017-06-29T18:38:51.896Z,64.82
2017-06-29T18:39:51.893Z,64.92
2017-06-29T18:40:51.608Z,64.82
2017-06-29T18:41:51.901Z,64.92
2017-06-29T18:42:51.597Z,65.59
2017-06-29T18:43:51.909Z,66.17
2017-06-29T18:44:51.909Z,65.2
2017-06-29T18:45:51.921Z,65.59
2017-06-29T18:46:51.603Z,65.01
2017-06-29T18:47:51.612Z,65.14
2017-06-29T18:48:51.930Z,65.3
2017-06-29T18:49:51.935Z,66.01
2017-06-29T18:50:51.935Z,65.43
2017-06-29T18:51:51.932Z,65.91
2017-06-29T18:52:51.938Z,66.1
2017-06-29T18:53:51.937Z,66.3
2017-06-29T18:54:51.941Z,66.1
2017-06-29T18:55:51.957Z,65.72
2017-06-29T18:56:51.948Z,66.49
2017-06-29T18:57:51.642Z,66.58
2017-06-29T18:58:51.957Z,67.32
2017-06-29T18:59:52.077Z,67.32
2017-06-29T19:00:51.962Z,66.94
2017-06-29T19:01:51.985Z,67.42
2017-06-29T19:02:51.967Z,67.22
2017-06-29T19:03:51.980Z,67.99
2017-06-29T19:04:51.661Z,67.51
2017-06-29T19:05:51.978Z,67.42
2017-06-29T19:06:51.986Z,67.8
2017-06-29T19:07:51.993Z,67.13
2017-06-29T19:08:51.989Z,68.38
2017-06-29T19:09:51.986Z,68.38
2017-06-29T19:10:51.686Z,68.38
2017-06-29T19:11:51.998Z,70.01
2017-06-29T19:12:52.999Z,67.61
2017-06-29T19:13:51.693Z,67.71
2017-06-29T19:14:52.052Z,68.57
2017-06-29T19:15:52.007Z,68.57
2017-06-29T19:16:51.704Z,68.86
2017-06-29T19:17:51.702Z,69.34
2017-06-29T19:18:51.702Z,69.24
2017-06-29T19:19:52.027Z,69.53
2017-06-29T19:20:52.027Z,69.6
2017-06-29T19:21:52.033Z,69.02
2017-06-29T19:22:51.723Z,69.5
2017-06-29T19:23:51.733Z,69.21
2017-06-29T19:24:52.032Z,68.92
2017-06-29T19:25:52.066Z,68.73
2017-06-29T19:26:52.039Z,68.44
2017-06-29T19:27:52.091Z,68.54
2017-06-29T19:28:52.046Z,68.92
2017-06-29T19:29:52.049Z,69.02
2017-06-29T19:30:52.052Z,69.31
2017-06-29T19:31:51.740Z,69.69
2017-06-29T19:32:51.745Z,69.02
2017-06-29T19:33:52.057Z,68.35
2017-06-29T19:34:52.061Z,69.21
2017-06-29T19:35:52.063Z,69.31
2017-06-29T19:36:52.093Z,69.5
2017-06-29T19:37:52.068Z,69.4
2017-06-29T19:38:51.760Z,68.83
2017-06-29T19:39:52.077Z,69.21
2017-06-29T19:40:51.766Z,69.37
2017-06-29T19:41:52.078Z,69.95
2017-06-29T19:42:52.089Z,69.56
2017-06-29T19:43:52.087Z,69.08
2017-06-29T19:44:52.099Z,69.18
2017-06-29T19:45:52.099Z,69.37
2017-06-29T19:46:52.100Z,69.27
2017-06-29T19:47:52.095Z,69.27
2017-06-29T19:48:52.098Z,69.66
2017-06-29T19:49:52.102Z,69.18
2017-06-29T19:50:51.803Z,69.46
2017-06-29T19:51:52.132Z,69.46
2017-06-29T19:52:52.112Z,69.75
2017-06-29T19:53:52.109Z,69.85
2017-06-29T19:54:52.117Z,69.95
2017-06-29T19:55:52.118Z,69.85
2017-06-29T19:56:52.117Z,70.14
2017-06-29T19:57:52.119Z,70.72
2017-06-29T19:58:52.126Z,71.1
2017-06-29T19:59:52.122Z,70.43
2017-06-29T20:00:52.127Z,70.81
2017-06-29T20:01:52.129Z,70.14
2017-06-29T20:02:52.147Z,71.39
2017-06-29T20:03:52.135Z,71
2017-06-29T20:04:52.138Z,71.29
2017-06-29T20:05:52.139Z,72.54
2017-06-29T20:06:52.144Z,72.83
2017-06-29T20:07:51.832Z,73.69
2017-06-29T20:08:52.148Z,73.5
2017-06-29T20:09:52.151Z,73.41
2017-06-29T20:10:52.154Z,73.46
2017-06-29T20:11:51.844Z,73.46
2017-06-29T20:12:51.848Z,73.94
2017-06-29T20:13:52.159Z,73.46
2017-06-29T20:14:52.164Z,74.04
2017-06-29T20:15:52.168Z,74.43
2017-06-29T20:16:52.200Z,74.81
2017-06-29T20:17:52.172Z,75.57
2017-06-29T20:18:52.176Z,75.48
2017-06-29T20:19:51.861Z,76.73
2017-06-29T20:20:52.177Z,77.21
2017-06-29T20:21:52.197Z,77.88
2017-06-29T20:22:51.867Z,77.01
2017-06-29T20:23:51.868Z,76.79
2017-06-29T20:24:52.185Z,76.88
2017-06-29T20:25:52.203Z,76.79
2017-06-29T20:26:52.188Z,77.65
2017-06-29T20:27:52.210Z,77.26
2017-06-29T20:28:52.248Z,76.12
2017-06-29T20:29:52.200Z,77.56
2017-06-29T20:30:51.897Z,76.98
2017-06-29T20:31:52.208Z,77.26
2017-06-29T20:32:52.204Z,77.65
2017-06-29T20:33:52.210Z,77.94
2017-06-29T20:34:52.209Z,78.23
2017-06-29T20:35:52.210Z,77.65
2017-06-29T20:36:51.908Z,77.26
2017-06-29T20:37:52.212Z,76.4
2017-06-29T20:38:51.905Z,76.54
2017-06-29T20:39:52.216Z,76.31
2017-06-29T20:40:51.910Z,76.21
2017-06-29T20:41:52.222Z,77.36
2017-06-29T20:42:52.226Z,76.98
2017-06-29T20:43:52.429Z,76.98
2017-06-29T20:44:51.913Z,77.17
2017-06-29T20:45:52.236Z,77.26
2017-06-29T20:46:51.925Z,77.56
2017-06-29T20:47:52.249Z,78.52
2017-06-29T20:48:52.240Z,78.99
2017-06-29T20:49:52.268Z,79.67
2017-06-29T20:50:52.247Z,80.4
2017-06-29T20:51:52.244Z,80.43
2017-06-29T20:52:52.250Z,79.76
2017-06-29T20:53:52.255Z,79.67
2017-06-29T20:54:52.250Z,78.42
2017-06-29T20:55:52.259Z,78.32
2017-06-29T20:56:52.254Z,79.38
2017-06-29T21:27:55.177Z,73.77
2017-06-29T21:28:55.106Z,75.21
2017-06-29T21:29:55.106Z,77.61
2017-06-29T21:30:55.100Z,75.12
2017-06-29T21:31:54.784Z,74.54
2017-06-29T21:32:55.099Z,73.87
2017-06-29T21:33:55.097Z,74.26
2017-06-29T21:34:55.093Z,75.89
2017-06-29T21:35:55.099Z,75.79
2017-06-29T21:36:55.096Z,75.6
2017-06-29T21:37:55.100Z,75.6
2017-06-29T21:38:55.098Z,75.21
2017-06-29T21:39:55.095Z,75.79
2017-06-29T21:40:55.100Z,75.98
2017-06-29T21:41:55.587Z,75.89
2017-06-29T21:42:55.149Z,75.21
2017-06-29T21:43:55.099Z,75.98
2017-06-29T21:44:55.097Z,75.21
2017-06-29T21:45:55.105Z,75.7
2017-06-29T21:46:55.116Z,75.98
2017-06-29T21:47:55.100Z,76.17
2017-06-29T21:48:55.103Z,78.67
2017-06-29T21:49:54.788Z,76.07
2017-06-29T21:50:55.104Z,75.31
2017-06-29T21:51:55.105Z,77.33
2017-06-29T21:52:55.109Z,76.94
2017-06-29T21:53:55.109Z,75.89
2017-06-29T21:54:55.111Z,74.83
2017-06-29T21:55:55.110Z,75.5
2017-06-29T21:56:55.114Z,75.4
2017-06-29T21:57:56.778Z,75.12
2017-06-29T21:58:55.116Z,76.65
2017-06-29T21:59:55.119Z,75.5
2017-06-29T22:00:55.122Z,75.79
2017-06-29T22:01:55.121Z,75.12
2017-06-29T22:02:55.125Z,74.44
2017-06-29T22:03:55.123Z,74.83
2017-06-29T22:04:55.126Z,74.93
2017-06-29T22:05:55.129Z,74.06
2017-06-29T22:06:55.131Z,74.26
2017-06-29T22:07:55.133Z,73.77
2017-06-29T22:08:55.137Z,73.97
2017-06-29T22:09:55.138Z,74.64
2017-06-29T22:10:55.139Z,75.12
2017-06-29T22:11:55.145Z,75.6
2017-06-29T22:12:55.217Z,74.83
2017-06-29T22:13:55.198Z,75.98
2017-06-29T22:14:55.142Z,74.26
2017-06-29T22:15:55.146Z,73.58
2017-06-29T22:16:55.165Z,74.83
2017-06-29T22:17:56.483Z,74.06
2017-06-29T22:18:55.161Z,74.06
2017-06-29T22:19:55.170Z,73.49
2017-06-29T22:20:55.163Z,74.83
2017-06-29T22:21:54.848Z,73.97
2017-06-29T22:22:55.171Z,73.39
2017-06-29T22:23:54.857Z,73.58
2017-06-29T22:24:54.870Z,73.35
2017-06-29T22:25:55.173Z,73.83
2017-06-29T22:26:55.171Z,73.35
2017-06-29T22:27:56.030Z,74.98
2017-06-29T22:28:55.177Z,73.65
2017-06-29T22:29:55.180Z,73.55
2017-06-29T22:30:55.176Z,73.83
2017-06-29T22:31:54.862Z,73.26
2017-06-29T22:32:55.187Z,73.26
2017-06-29T22:33:55.191Z,73.35
2017-06-29T22:34:55.191Z,73.16
2017-06-29T22:35:55.250Z,73.16
2017-06-29T22:36:54.874Z,72.59
2017-06-29T22:37:54.879Z,73.65
2017-06-29T22:38:54.898Z,73.74
2017-06-29T22:39:55.210Z,73.55
2017-06-29T22:40:55.239Z,73.55
